createdAt,value
2022-10-11T00:00:16.651Z,97.77
2022-10-11T00:01:16.095Z,97.77
2022-10-11T00:02:16.354Z,97.97
2022-10-11T00:03:16.680Z,97.87
2022-10-11T00:04:17.009Z,97.77
2022-10-11T00:05:17.362Z,97.77
2022-10-11T00:06:17.576Z,97.66
2022-10-11T00:07:17.884Z,97.46
2022-10-11T00:08:18.203Z,97.46
2022-10-11T00:09:18.517Z,97.46
2022-10-11T00:10:18.851Z,97.46
2022-10-11T00:11:19.065Z,97.56
2022-10-11T00:12:20.592Z,97.56
2022-10-11T00:13:19.614Z,97.77
2022-10-11T00:14:19.981Z,97.77
2022-10-11T00:15:20.177Z,97.77
2022-10-11T00:16:20.491Z,97.77
2022-10-11T00:17:20.805Z,97.97
2022-10-11T00:18:21.113Z,97.97
2022-10-11T00:19:25.283Z,97.97
2022-10-11T00:20:25.472Z,98.07
2022-10-11T00:21:21.960Z,98.07
2022-10-11T00:22:22.196Z,97.77
2022-10-11T00:23:22.557Z,97.77
2022-10-11T00:24:23.524Z,97.66
2022-10-11T00:25:23.948Z,98.07
2022-10-11T00:26:23.335Z,98.38
2022-10-11T00:27:23.658Z,98.38
2022-10-11T00:28:24.027Z,98.79
2022-10-11T00:29:24.246Z,98.89
2022-10-11T00:30:24.565Z,98.79
2022-10-11T00:31:24.873Z,98.64
2022-10-11T00:33:39.624Z,98.43
2022-10-11T00:34:39.923Z,98.43
2022-10-11T00:35:40.222Z,98.54
2022-10-11T00:36:40.565Z,98.54
2022-10-11T00:37:40.767Z,98.64
2022-10-11T00:38:41.076Z,98.33
2022-10-11T00:39:41.400Z,98.64
2022-10-11T00:40:41.708Z,98.74
2022-10-11T00:41:42.024Z,98.69
2022-10-11T00:42:42.335Z,98.59
2022-10-11T00:43:42.649Z,98.39
2022-10-11T00:44:42.963Z,98.28
2022-10-11T00:45:43.282Z,98.18
2022-10-11T00:46:43.657Z,98.08
2022-10-11T00:47:43.859Z,97.88
2022-10-11T00:48:44.172Z,97.98
2022-10-11T00:49:44.480Z,97.98
2022-10-11T00:50:44.791Z,97.78
2022-10-11T00:51:45.133Z,97.88
2022-10-11T02:55:31.764Z,99.05
2022-10-11T02:56:32.002Z,99.05
2022-10-11T02:57:32.236Z,99.05
2022-10-11T02:58:32.463Z,99.16
2022-10-11T02:59:32.786Z,99.16
2022-10-11T03:00:33.157Z,99.05
2022-10-11T03:01:33.484Z,98.95
2022-10-11T03:02:33.597Z,99.05
2022-10-11T03:03:33.934Z,99.05
2022-10-11T03:04:34.309Z,99.16
2022-10-11T03:05:34.519Z,99.36
2022-10-11T03:06:34.846Z,99.46
2022-10-11T03:07:35.180Z,99.56
2022-10-11T03:08:35.388Z,99.46
2022-10-11T03:09:35.751Z,99.46
2022-10-11T03:10:35.960Z,99.46
2022-10-11T03:11:36.376Z,99.46
2022-10-11T03:12:36.608Z,99.26
2022-10-11T03:13:36.825Z,99.05
2022-10-11T03:14:37.171Z,99.05
2022-10-11T03:15:37.378Z,98.90
2022-10-11T03:16:37.696Z,99.30
2022-10-11T03:17:38.001Z,99.51
2022-10-11T03:18:38.322Z,99.41
2022-10-11T03:19:38.672Z,99.41
2022-10-11T03:20:38.920Z,99.71
2022-10-11T03:21:39.128Z,99.71
2022-10-11T03:22:39.462Z,99.71
2022-10-11T03:23:39.680Z,99.77
2022-10-11T03:24:39.996Z,99.77
2022-10-11T03:25:40.342Z,99.66
2022-10-11T03:26:40.566Z,99.56
2022-10-11T03:27:40.773Z,99.46
2022-10-11T03:28:41.177Z,99.46
2022-10-11T03:29:42.287Z,99.46
2022-10-11T03:30:41.643Z,99.36
2022-10-11T03:31:41.987Z,99.26
2022-10-11T03:32:42.302Z,99.30
2022-10-11T03:33:42.616Z,99.71
2022-10-11T03:34:42.909Z,99.66
2022-10-11T03:35:43.232Z,99.56
2022-10-11T03:36:43.572Z,99.56
2022-10-11T03:37:43.881Z,99.66
2022-10-11T03:38:44.234Z,99.26
2022-10-11T03:39:44.417Z,99.36
2022-10-11T03:40:44.710Z,99.36
2022-10-11T03:41:45.059Z,99.36
2022-10-11T03:42:45.282Z,99.46
2022-10-11T03:43:45.499Z,99.36
2022-10-11T03:44:45.819Z,99.36
2022-10-11T03:45:46.136Z,99.16
2022-10-11T03:46:46.450Z,99.36
2022-10-11T03:47:46.780Z,99.16
2022-10-11T03:48:47.099Z,99.05
2022-10-11T03:49:47.421Z,99.16
2022-10-11T03:50:47.735Z,99.16
2022-10-11T03:51:48.095Z,98.95
2022-10-11T03:52:48.287Z,99.16
2022-10-11T03:53:48.631Z,99.16
2022-10-11T03:54:48.829Z,99.05
2022-10-11T03:55:49.163Z,98.85
2022-10-11T03:56:49.368Z,98.75
2022-10-11T03:57:49.669Z,98.65
2022-10-11T03:58:49.988Z,98.65
2022-10-11T03:59:52.146Z,98.44
2022-10-11T04:00:50.590Z,98.65
2022-10-11T04:01:50.966Z,98.65
2022-10-11T04:02:51.189Z,98.95
2022-10-11T04:03:51.501Z,98.85
2022-10-11T04:04:51.789Z,98.91
2022-10-11T04:05:52.110Z,98.91
2022-10-11T04:06:52.452Z,98.91
2022-10-11T04:07:52.659Z,98.85
2022-10-11T04:08:53.008Z,98.95
2022-10-11T04:09:53.312Z,98.85
2022-10-11T04:10:55.420Z,98.75
2022-10-11T04:11:53.838Z,98.65
2022-10-11T04:12:54.194Z,98.85
2022-10-11T04:13:54.406Z,99.26
2022-10-11T04:14:54.717Z,99.66
2022-10-11T04:15:55.128Z,99.56
2022-10-11T04:16:58.404Z,99.46
2022-10-11T04:17:56.658Z,99.56
2022-10-11T04:18:55.939Z,99.66
2022-10-11T04:19:56.137Z,99.66
2022-10-11T04:20:56.456Z,99.66
2022-10-11T04:21:56.784Z,99.87
2022-10-11T04:22:57.108Z,99.77
2022-10-11T04:23:57.461Z,99.77
2022-10-11T04:24:57.655Z,99.97
2022-10-11T04:25:57.993Z,99.77
2022-10-11T04:26:58.187Z,99.66
2022-10-11T04:27:58.500Z,99.66
2022-10-11T04:28:58.941Z,99.77
2022-10-11T04:29:59.026Z,99.77
2022-10-11T04:30:59.372Z,99.77
2022-10-11T04:31:59.709Z,99.87
2022-10-11T04:32:59.917Z,99.77
2022-10-11T04:34:00.266Z,99.66
2022-10-11T04:35:00.579Z,99.56
2022-10-11T04:36:01.019Z,99.36
2022-10-11T04:37:01.126Z,99.46
2022-10-11T04:38:01.808Z,99.46
2022-10-11T04:39:01.904Z,99.26
2022-10-11T04:40:02.021Z,99.26
2022-10-11T04:41:02.366Z,99.16
2022-10-11T04:42:02.708Z,99.01
2022-10-11T04:43:02.903Z,99.05
2022-10-11T04:44:03.192Z,98.65
2022-10-11T04:45:03.505Z,98.54
2022-10-11T04:46:04.193Z,98.65
2022-10-11T04:47:04.147Z,98.85
2022-10-11T04:48:04.457Z,98.85
2022-10-11T04:49:04.769Z,98.75
2022-10-11T04:50:05.093Z,98.75
2022-10-11T04:51:05.397Z,98.95
2022-10-11T04:52:05.781Z,99.05
2022-10-11T04:53:06.781Z,99.05
2022-10-11T04:54:06.968Z,99.05
2022-10-11T04:55:06.584Z,98.95
2022-10-11T04:56:07.351Z,98.85
2022-10-11T04:57:07.228Z,98.85
2022-10-11T04:58:07.583Z,99.05
2022-10-11T04:59:07.785Z,99.05
2022-10-11T05:00:08.099Z,99.05
2022-10-11T05:01:08.423Z,99.16
2022-10-11T05:02:08.850Z,99.16
2022-10-11T05:03:08.970Z,98.95
2022-10-11T05:04:09.263Z,98.65
2022-10-11T05:05:09.603Z,98.95
2022-10-11T05:06:10.176Z,99.16
2022-10-11T05:07:10.255Z,99.05
2022-10-11T05:08:10.568Z,99.26
2022-10-11T05:09:10.869Z,99.16
2022-10-11T05:10:11.191Z,99.36
2022-10-11T05:11:11.393Z,99.26
2022-10-11T05:12:11.742Z,99.36
2022-10-11T05:13:11.930Z,99.46
2022-10-11T05:14:12.283Z,99.36
2022-10-11T05:15:14.289Z,99.16
2022-10-11T05:16:13.030Z,99.26
2022-10-11T05:17:13.008Z,99.46
2022-10-11T05:18:13.236Z,99.61
2022-10-11T05:19:13.428Z,99.71
2022-10-11T05:20:13.753Z,99.66
2022-10-11T05:21:14.051Z,99.51
2022-10-11T05:22:14.344Z,99.61
2022-10-11T05:23:14.688Z,99.71
2022-10-11T05:24:14.927Z,99.81
2022-10-11T05:25:15.133Z,99.91
2022-10-11T05:26:15.454Z,99.91
2022-10-11T05:27:15.783Z,99.99
2022-10-11T05:28:16.209Z,99.99
2022-10-11T05:29:16.455Z,99.99
2022-10-11T05:30:16.689Z,99.99
2022-10-11T05:31:16.866Z,99.99
2022-10-11T05:32:17.189Z,99.99
2022-10-11T05:33:17.522Z,99.99
2022-10-11T05:34:17.841Z,99.99
2022-10-11T05:35:18.185Z,99.99
2022-10-11T05:36:18.414Z,99.99
2022-10-11T05:37:18.602Z,99.99
2022-10-11T05:38:18.914Z,99.99
2022-10-11T05:39:19.233Z,99.99
2022-10-11T05:40:19.518Z,99.99
2022-10-11T05:41:19.871Z,99.99
2022-10-11T05:42:20.064Z,99.99
2022-10-11T05:43:20.393Z,99.99
2022-10-11T05:44:20.712Z,99.99
2022-10-11T05:45:22.839Z,99.99
2022-10-11T05:46:21.288Z,99.99
2022-10-11T05:47:21.471Z,99.99
2022-10-11T05:48:21.785Z,99.99
2022-10-11T05:49:22.108Z,99.99
2022-10-11T05:50:24.438Z,99.99
2022-10-11T05:51:22.686Z,99.99
2022-10-11T05:52:26.880Z,99.91
2022-10-11T05:53:23.994Z,99.81
2022-10-11T05:54:23.492Z,99.71
2022-10-11T05:55:23.852Z,99.71
2022-10-11T05:56:24.048Z,99.61
2022-10-11T05:57:24.365Z,99.71
2022-10-11T05:58:24.675Z,99.81
2022-10-11T05:59:24.983Z,99.91
2022-10-11T06:00:25.292Z,99.81
2022-10-11T06:01:25.668Z,99.91
2022-10-11T06:02:25.873Z,99.77
2022-10-11T06:03:26.076Z,99.66
2022-10-11T06:04:26.299Z,99.46
2022-10-11T06:05:26.609Z,99.36
2022-10-11T06:06:26.931Z,99.26
2022-10-11T06:07:27.287Z,99.16
2022-10-11T06:08:29.308Z,99.16
2022-10-11T06:09:27.727Z,99.26
2022-10-11T06:10:28.139Z,99.05
2022-10-11T06:11:28.284Z,98.95
2022-10-11T06:12:28.633Z,99.05
2022-10-11T06:13:29.591Z,99.05
2022-10-11T06:14:29.126Z,99.05
2022-10-11T06:15:29.361Z,99.26
2022-10-11T06:16:29.560Z,99.16
2022-10-11T06:17:29.870Z,99.01
2022-10-11T06:18:30.202Z,98.70
2022-10-11T06:19:30.511Z,98.70
2022-10-11T06:20:30.860Z,98.70
2022-10-11T06:21:32.892Z,98.60
2022-10-11T06:22:31.311Z,98.60
2022-10-11T06:23:31.615Z,98.39
2022-10-11T06:24:31.946Z,98.35
2022-10-11T06:25:32.297Z,98.14
2022-10-11T06:26:32.641Z,97.84
2022-10-11T06:27:32.945Z,97.84
2022-10-11T06:28:33.334Z,97.84
2022-10-11T06:29:33.557Z,97.74
2022-10-11T06:30:33.896Z,97.69
2022-10-11T06:31:34.252Z,97.60
2022-10-11T06:32:35.228Z,97.29
2022-10-11T06:33:34.732Z,97.19
2022-10-11T06:34:35.049Z,97.24
2022-10-11T06:35:35.389Z,96.94
2022-10-11T06:36:37.558Z,96.53
2022-10-11T06:37:35.964Z,96.23
2022-10-11T06:38:38.009Z,95.78
2022-10-11T06:39:37.368Z,95.57
2022-10-11T06:40:36.867Z,95.26
2022-10-11T06:41:37.195Z,95.26
2022-10-11T06:42:37.513Z,95.17
2022-10-11T06:43:37.842Z,95.06
2022-10-11T06:44:38.201Z,94.86
2022-10-11T06:45:38.390Z,94.61
2022-10-11T06:46:38.737Z,94.61
2022-10-11T06:47:40.891Z,94.41
2022-10-11T06:48:39.294Z,94.21
2022-10-11T06:49:39.639Z,94.31
2022-10-11T06:50:58.540Z,94.21
2022-10-11T06:51:41.183Z,94.10
2022-10-11T06:52:40.434Z,94.31
2022-10-11T06:53:40.753Z,94.31
2022-10-11T06:54:45.083Z,94.17
2022-10-11T06:55:41.399Z,94.26
2022-10-11T06:56:41.761Z,94.17
2022-10-11T06:57:41.972Z,93.96
2022-10-11T06:58:42.305Z,93.86
2022-10-11T06:59:42.624Z,93.65
2022-10-11T07:00:42.985Z,93.76
2022-10-11T07:01:43.241Z,93.76
2022-10-11T07:02:43.434Z,93.76
2022-10-11T07:03:43.748Z,93.65
2022-10-11T07:04:44.062Z,93.65
2022-10-11T07:05:44.375Z,93.51
2022-10-11T07:06:44.739Z,93.41
2022-10-11T07:07:44.917Z,93.30
2022-10-11T07:08:45.225Z,93.10
2022-10-11T07:09:45.549Z,93.21
2022-10-11T07:10:45.843Z,93.16
2022-10-11T07:11:46.186Z,92.71
2022-10-11T07:12:46.516Z,92.51
2022-10-11T07:13:46.834Z,91.61
2022-10-11T07:14:47.138Z,90.16
2022-10-11T07:15:47.451Z,88.90
2022-10-11T07:16:47.799Z,88.15
2022-10-11T07:17:48.028Z,87.44
2022-10-11T07:18:48.271Z,87.34
2022-10-11T07:19:48.529Z,87.24
2022-10-11T07:20:48.733Z,86.99
2022-10-11T07:21:49.046Z,86.49
2022-10-11T07:22:49.344Z,86.49
2022-10-11T07:23:49.653Z,86.49
2022-10-11T07:24:50.009Z,86.90
2022-10-11T07:25:50.205Z,87.10
2022-10-11T07:26:50.539Z,86.90
2022-10-11T07:27:50.856Z,87.19
2022-10-11T07:28:51.244Z,86.90
2022-10-11T07:29:51.490Z,86.99
2022-10-11T07:30:51.805Z,87.60
2022-10-11T07:31:52.128Z,87.19
2022-10-11T07:32:52.476Z,87.13
2022-10-11T07:33:52.659Z,87.54
2022-10-11T07:34:52.923Z,87.84
2022-10-11T07:35:53.961Z,87.84
2022-10-11T07:36:53.458Z,88.15
2022-10-11T07:37:53.802Z,88.45
2022-10-11T07:38:54.014Z,88.35
2022-10-11T07:39:54.330Z,87.95
2022-10-11T07:40:56.478Z,88.25
2022-10-11T07:41:54.886Z,88.21
2022-10-11T07:42:55.226Z,87.60
2022-10-11T07:43:55.545Z,87.40
2022-10-11T07:44:55.853Z,87.19
2022-10-11T07:45:56.179Z,87.19
2022-10-11T07:46:56.520Z,87.19
2022-10-11T07:47:56.869Z,87.40
2022-10-11T07:48:57.101Z,87.10
2022-10-11T07:49:57.315Z,86.93
2022-10-11T07:50:57.634Z,87.13
2022-10-11T07:51:59.767Z,86.83
2022-10-11T07:52:58.182Z,86.73
2022-10-11T07:54:00.506Z,86.83
2022-10-11T07:54:58.701Z,86.83
2022-10-11T07:55:58.986Z,86.83
2022-10-11T07:56:59.290Z,86.83
2022-10-11T07:57:59.603Z,86.83
2022-10-11T07:58:59.961Z,86.93
2022-10-11T08:00:00.210Z,86.59
2022-10-11T08:01:00.597Z,86.49
2022-10-11T08:02:00.937Z,86.29
2022-10-11T08:03:01.147Z,86.39
2022-10-11T08:04:01.455Z,86.19
2022-10-11T08:05:01.742Z,85.99
2022-10-11T08:06:01.982Z,85.74
2022-10-11T08:07:02.344Z,85.34
2022-10-11T08:08:02.546Z,85.30
2022-10-11T08:09:02.872Z,84.55
2022-10-11T08:10:03.182Z,83.80
2022-10-11T08:11:03.489Z,83.60
2022-10-11T08:12:03.854Z,83.06
2022-10-11T08:13:04.665Z,82.11
2022-10-11T08:14:04.420Z,81.61
2022-10-11T08:15:04.608Z,81.27
2022-10-11T08:16:05.413Z,80.66
2022-10-11T08:17:05.210Z,79.62
2022-10-11T08:18:05.455Z,79.52
2022-10-11T08:19:06.432Z,79.72
2022-10-11T08:20:05.919Z,80.06
2022-10-11T08:21:06.277Z,80.26
2022-10-11T08:22:06.475Z,80.02
2022-10-11T08:23:06.783Z,79.86
2022-10-11T08:24:07.102Z,80.22
2022-10-11T08:25:07.421Z,79.72
2022-10-11T08:26:08.252Z,79.22
2022-10-11T08:27:08.028Z,79.11
2022-10-11T08:28:08.395Z,79.11
2022-10-11T08:29:08.546Z,78.71
2022-10-11T08:30:08.869Z,78.47
2022-10-11T08:31:09.224Z,78.47
2022-10-11T08:32:09.421Z,77.57
2022-10-11T08:33:09.729Z,77.94
2022-10-11T08:34:10.047Z,77.53
2022-10-11T08:35:10.372Z,77.43
2022-10-11T08:36:11.150Z,77.29
2022-10-11T08:37:10.966Z,76.49
2022-10-11T08:38:11.289Z,76.89
2022-10-11T08:39:11.611Z,76.79
2022-10-11T08:40:11.930Z,76.29
2022-10-11T08:41:12.275Z,76.29
2022-10-11T08:42:12.502Z,75.45
2022-10-11T08:43:12.695Z,75.01
2022-10-11T08:44:13.010Z,74.07
2022-10-11T08:45:14.078Z,72.50
2022-10-11T08:46:13.554Z,71.59
2022-10-11T08:47:13.944Z,69.66
2022-10-11T08:48:14.186Z,68.49
2022-10-11T08:49:14.375Z,66.30
2022-10-11T08:50:16.603Z,65.17
2022-10-11T08:51:15.024Z,64.47
2022-10-11T08:52:15.346Z,62.75
2022-10-11T08:53:16.663Z,60.17
2022-10-11T08:54:15.903Z,59.25
2022-10-11T08:55:16.232Z,57.81
2022-10-11T08:56:16.558Z,56.68
2022-10-11T08:57:16.884Z,56.76
2022-10-11T08:58:17.243Z,55.81
2022-10-11T08:59:17.436Z,55.29
2022-10-11T09:00:17.744Z,54.79
2022-10-11T09:01:18.131Z,54.99
2022-10-11T09:02:18.332Z,53.08
2022-10-11T09:03:18.675Z,53.25
2022-10-11T09:04:18.884Z,52.64
2022-10-11T09:05:19.213Z,51.20
2022-10-11T09:06:19.587Z,50.46
2022-10-11T09:07:19.781Z,49.33
2022-10-11T09:08:20.094Z,49.20
2022-10-11T09:09:20.418Z,47.78
2022-10-11T09:10:20.833Z,47.34
2022-10-11T09:11:21.064Z,46.43
2022-10-11T09:12:21.388Z,45.23
2022-10-11T09:13:22.689Z,45.50
2022-10-11T09:14:21.969Z,44.69
2022-10-11T09:15:22.318Z,44.02
2022-10-11T09:16:22.622Z,43.69
2022-10-11T09:17:22.952Z,43.10
2022-10-11T09:18:23.256Z,43.05
2022-10-11T09:19:23.575Z,42.35
2022-10-11T09:20:23.973Z,42.25
2022-10-11T09:21:24.187Z,41.88
2022-10-11T09:22:29.510Z,42.86
2022-10-11T09:23:25.856Z,42.25
2022-10-11T09:24:25.110Z,42.35
2022-10-11T09:25:25.436Z,42.61
2022-10-11T09:26:25.796Z,42.72
2022-10-11T09:27:50.423Z,43.53
2022-10-11T09:28:27.315Z,43.85
2022-10-11T09:29:26.574Z,46.06
2022-10-11T09:30:26.919Z,46.34
2022-10-11T09:31:27.275Z,47.35
2022-10-11T09:32:27.472Z,47.03
2022-10-11T09:33:27.794Z,46.20
2022-10-11T09:34:28.138Z,45.00
2022-10-11T09:35:28.330Z,45.76
2022-10-11T09:36:28.628Z,44.83
2022-10-11T09:37:28.978Z,43.71
2022-10-11T09:38:29.172Z,42.08
2022-10-11T09:39:29.478Z,41.76
2022-10-11T09:40:29.793Z,41.56
2022-10-11T09:41:30.112Z,40.86
2022-10-11T09:42:30.469Z,40.94
2022-10-11T09:43:32.608Z,40.55
2022-10-11T09:44:31.012Z,41.25
2022-10-11T09:45:31.316Z,41.29
2022-10-11T09:46:31.640Z,42.00
2022-10-11T09:47:31.951Z,42.90
2022-10-11T09:48:32.294Z,42.94
2022-10-11T09:49:32.505Z,44.12
2022-10-11T09:50:32.808Z,43.83
2022-10-11T09:51:33.088Z,42.92
2022-10-11T09:52:33.406Z,43.53
2022-10-11T09:53:33.770Z,42.96
2022-10-11T09:54:33.953Z,43.77
2022-10-11T09:55:34.271Z,43.06
2022-10-11T09:56:34.564Z,42.20
2022-10-11T09:57:34.855Z,43.79
2022-10-11T09:58:35.221Z,44.48
2022-10-11T09:59:36.171Z,46.40
2022-10-11T10:00:37.469Z,46.81
2022-10-11T10:01:36.035Z,47.06
2022-10-11T10:02:36.296Z,48.14
2022-10-11T10:03:36.494Z,48.63
2022-10-11T10:04:36.792Z,47.60
2022-10-11T10:05:37.141Z,46.08
2022-10-11T10:06:37.440Z,45.37
2022-10-11T10:07:37.753Z,44.93
2022-10-11T10:08:38.052Z,44.12
2022-10-11T10:09:39.163Z,43.02
2022-10-11T10:10:38.680Z,42.80
2022-10-11T10:11:38.898Z,43.71
2022-10-11T10:12:39.246Z,43.24
2022-10-11T10:13:39.455Z,43.46
2022-10-11T10:14:39.773Z,44.78
2022-10-11T10:15:40.081Z,45.78
2022-10-11T10:16:40.407Z,46.42
2022-10-11T10:17:40.729Z,46.22
2022-10-11T10:18:41.032Z,47.16
2022-10-11T10:19:45.086Z,48.56
2022-10-11T10:20:41.684Z,48.16
2022-10-11T10:21:42.014Z,47.47
2022-10-11T10:22:42.327Z,47.45
2022-10-11T10:23:42.626Z,45.56
2022-10-11T10:24:42.945Z,46.74
2022-10-11T10:25:44.024Z,47.41
2022-10-11T10:26:43.547Z,47.33
2022-10-11T10:27:43.784Z,47.06
2022-10-11T10:28:44.130Z,47.28
2022-10-11T10:29:44.327Z,48.68
2022-10-11T10:30:46.445Z,48.73
2022-10-11T10:32:09.301Z,48.95
2022-10-11T10:32:48.554Z,50.56
2022-10-11T10:33:45.495Z,51.20
2022-10-11T10:34:45.824Z,50.48
2022-10-11T10:35:50.073Z,51.10
2022-10-11T10:36:46.417Z,50.88
2022-10-11T10:37:46.709Z,49.42
2022-10-11T10:38:51.301Z,47.63
2022-10-11T10:39:48.356Z,45.07
2022-10-11T10:40:47.635Z,43.43
2022-10-11T10:41:47.833Z,41.90
2022-10-11T10:42:48.146Z,41.58
2022-10-11T10:43:48.466Z,43.38
2022-10-11T10:44:48.769Z,46.03
2022-10-11T10:45:49.074Z,47.77
2022-10-11T10:46:49.368Z,47.55
2022-10-11T10:47:49.680Z,44.36
2022-10-11T10:49:55.127Z,40.86
2022-10-11T10:50:50.490Z,40.14
2022-10-11T10:51:52.646Z,37.95
2022-10-11T10:52:51.052Z,37.73
2022-10-11T10:53:51.356Z,37.70
2022-10-11T10:54:55.586Z,36.68
2022-10-11T10:55:51.962Z,36.84
2022-10-11T10:56:52.282Z,36.02
2022-10-11T10:57:52.579Z,35.02
2022-10-11T10:58:52.903Z,34.70
2022-10-11T10:59:53.259Z,34.90
2022-10-11T11:00:53.451Z,33.93
2022-10-11T11:01:53.812Z,33.41
2022-10-11T11:02:54.117Z,33.26
2022-10-11T11:03:54.337Z,31.99
2022-10-11T11:04:54.710Z,32.02
2022-10-11T11:05:54.978Z,32.02
2022-10-11T11:06:55.170Z,33.23
2022-10-11T11:07:55.520Z,34.71
2022-10-11T11:08:55.816Z,36.96
2022-10-11T11:09:57.952Z,38.93
2022-10-11T11:10:56.355Z,39.66
2022-10-11T11:11:56.689Z,38.24
2022-10-11T11:13:00.628Z,37.07
2022-10-11T11:13:57.094Z,35.96
2022-10-11T11:14:57.414Z,35.25
2022-10-11T11:15:57.734Z,34.80
2022-10-11T11:16:58.074Z,34.09
2022-10-11T11:17:58.284Z,33.07
2022-10-11T11:18:58.589Z,32.46
2022-10-11T11:19:58.909Z,31.96
2022-10-11T11:20:59.244Z,31.74
2022-10-11T11:21:59.564Z,31.60
2022-10-11T11:23:03.699Z,33.20
2022-10-11T11:24:04.027Z,33.81
2022-10-11T11:25:00.499Z,33.12
2022-10-11T11:26:00.830Z,32.45
2022-10-11T11:27:01.185Z,31.63
2022-10-11T11:28:01.476Z,30.73
2022-10-11T11:29:01.797Z,30.29
2022-10-11T11:30:02.135Z,29.49
2022-10-11T11:31:02.448Z,29.20
2022-10-11T11:32:02.594Z,29.12
2022-10-11T11:33:02.894Z,29.59
2022-10-11T11:34:03.223Z,29.60
2022-10-11T11:35:07.382Z,30.07
2022-10-11T11:36:04.199Z,29.97
2022-10-11T11:37:04.110Z,29.28
2022-10-11T11:38:06.493Z,29.75
2022-10-11T11:39:04.635Z,28.11
2022-10-11T11:40:04.928Z,29.17
2022-10-11T11:41:05.548Z,28.59
2022-10-11T11:42:05.485Z,28.00
2022-10-11T11:43:05.810Z,28.55
2022-10-11T11:44:07.987Z,28.50
2022-10-11T11:45:06.390Z,29.83
2022-10-11T11:46:06.729Z,30.18
2022-10-11T11:47:06.929Z,29.83
2022-10-11T11:48:07.255Z,30.11
2022-10-11T11:49:12.096Z,29.91
2022-10-11T11:50:08.846Z,30.20
2022-10-11T11:51:08.402Z,29.01
2022-10-11T11:52:08.407Z,29.10
2022-10-11T11:53:08.734Z,29.59
2022-10-11T11:54:09.067Z,29.50
2022-10-11T11:55:09.370Z,30.17
2022-10-11T11:56:09.675Z,29.49
2022-10-11T11:57:09.990Z,29.23
2022-10-11T11:58:10.339Z,29.44
2022-10-11T11:59:10.669Z,30.52
2022-10-11T12:00:10.964Z,30.62
2022-10-11T12:01:11.324Z,29.94
2022-10-11T12:02:11.536Z,29.92
2022-10-11T12:03:11.835Z,29.50
2022-10-11T12:04:12.128Z,28.73
2022-10-11T12:05:12.422Z,28.92
2022-10-11T12:06:12.794Z,28.85
2022-10-11T12:07:17.328Z,29.13
2022-10-11T12:08:13.242Z,29.33
2022-10-11T12:09:13.551Z,29.22
2022-10-11T12:10:13.885Z,29.22
2022-10-11T12:11:14.184Z,29.59
2022-10-11T12:12:14.492Z,29.88
2022-10-11T12:13:14.780Z,29.22
2022-10-11T12:14:15.084Z,30.02
2022-10-11T12:15:15.377Z,29.81
2022-10-11T12:16:15.721Z,29.13
2022-10-11T12:17:16.043Z,29.41
2022-10-11T12:18:16.323Z,28.61
2022-10-11T12:19:16.602Z,28.40
2022-10-11T12:20:17.692Z,27.91
2022-10-11T12:21:17.166Z,27.34
2022-10-11T12:22:17.482Z,27.23
2022-10-11T12:23:19.936Z,27.31
2022-10-11T12:24:17.980Z,27.40
2022-10-11T12:25:18.828Z,27.51
2022-10-11T12:26:18.631Z,28.08
2022-10-11T12:27:18.962Z,27.81
2022-10-11T12:28:19.300Z,28.11
2022-10-11T12:29:20.798Z,28.34
2022-10-11T12:30:19.947Z,29.63
2022-10-11T12:31:20.143Z,29.71
2022-10-11T12:32:20.443Z,29.43
2022-10-11T12:33:20.779Z,28.62
2022-10-11T12:34:20.979Z,28.91
2022-10-11T12:35:21.288Z,28.73
2022-10-11T12:36:23.412Z,29.33
2022-10-11T12:37:21.985Z,28.65
2022-10-11T12:38:22.178Z,28.96
2022-10-11T12:39:26.294Z,29.05
2022-10-11T12:40:22.806Z,28.96
2022-10-11T12:41:23.109Z,29.52
2022-10-11T12:42:23.423Z,29.10
2022-10-11T12:43:23.720Z,28.88
2022-10-11T12:44:25.844Z,28.11
2022-10-11T12:45:24.390Z,27.60
2022-10-11T12:46:24.688Z,27.29
2022-10-11T12:47:24.982Z,27.96
2022-10-11T12:48:28.660Z,27.11
2022-10-11T12:49:26.561Z,27.50
2022-10-11T12:50:25.839Z,27.60
2022-10-11T12:51:26.026Z,27.89
2022-10-11T12:52:26.415Z,28.48
2022-10-11T12:53:30.356Z,29.44
2022-10-11T12:54:29.960Z,30.94
2022-10-11T12:55:28.116Z,29.97
2022-10-11T12:56:27.409Z,29.27
2022-10-11T12:57:27.624Z,29.34
2022-10-11T12:58:27.948Z,28.75
2022-10-11T12:59:28.272Z,28.62
2022-10-11T13:00:28.566Z,28.40
2022-10-11T13:01:28.939Z,27.44
2022-10-11T13:02:31.047Z,27.53
2022-10-11T13:03:32.280Z,27.53
2022-10-11T13:04:29.795Z,28.02
2022-10-11T13:05:30.110Z,27.73
2022-10-11T13:06:30.417Z,27.85
2022-10-11T13:07:30.747Z,28.81
2022-10-11T13:08:31.044Z,28.04
2022-10-11T13:09:35.386Z,28.12
2022-10-11T13:10:31.629Z,27.83
2022-10-11T13:11:31.941Z,28.70
2022-10-11T13:12:32.279Z,28.03
2022-10-11T13:13:32.568Z,28.51
2022-10-11T13:14:32.869Z,28.72
2022-10-11T13:15:33.180Z,27.96
2022-10-11T13:16:34.265Z,29.22
2022-10-11T13:17:38.196Z,28.83
2022-10-11T13:18:35.070Z,29.23
2022-10-11T13:19:34.404Z,28.56
2022-10-11T13:20:37.434Z,29.26
2022-10-11T13:21:35.879Z,29.55
2022-10-11T13:22:35.134Z,29.34
2022-10-11T13:23:35.443Z,29.36
2022-10-11T13:24:35.766Z,29.47
2022-10-11T13:25:36.066Z,29.88
2022-10-11T13:26:36.380Z,30.30
2022-10-11T13:27:36.688Z,31.68
2022-10-11T13:28:37.066Z,31.19
2022-10-11T13:29:41.165Z,31.70
2022-10-11T13:30:37.513Z,32.00
2022-10-11T13:31:37.820Z,32.31
2022-10-11T13:32:38.124Z,32.24
2022-10-11T13:33:39.189Z,33.04
2022-10-11T13:34:38.703Z,33.34
2022-10-11T13:35:39.036Z,34.44
2022-10-11T13:36:39.369Z,34.36
2022-10-11T13:37:39.705Z,34.58
2022-10-11T13:38:39.991Z,35.50
2022-10-11T13:39:40.290Z,36.22
2022-10-11T13:40:40.584Z,37.12
2022-10-11T13:41:40.899Z,37.52
2022-10-11T13:42:41.220Z,37.52
2022-10-11T13:43:41.525Z,37.33
2022-10-11T13:44:41.823Z,37.43
2022-10-11T13:45:42.150Z,37.63
2022-10-11T13:46:42.445Z,36.84
2022-10-11T13:47:42.774Z,37.23
2022-10-11T13:48:43.082Z,37.74
2022-10-11T13:49:43.376Z,37.76
2022-10-11T13:50:43.670Z,37.66
2022-10-11T13:51:43.963Z,38.46
2022-10-11T13:52:44.332Z,39.27
2022-10-11T13:53:44.514Z,39.29
2022-10-11T13:54:44.826Z,39.82
2022-10-11T13:55:45.183Z,39.94
2022-10-11T13:56:45.474Z,40.64
2022-10-11T13:57:45.790Z,41.47
2022-10-11T13:58:46.094Z,42.58
2022-10-11T13:59:46.393Z,42.30
2022-10-11T14:00:46.731Z,42.89
2022-10-11T14:01:47.090Z,43.70
2022-10-11T14:02:47.327Z,43.52
2022-10-11T14:03:47.637Z,43.82
2022-10-11T14:04:47.936Z,44.32
2022-10-11T14:05:48.271Z,44.73
2022-10-11T14:06:48.573Z,44.93
2022-10-11T14:07:48.866Z,45.92
2022-10-11T14:08:49.216Z,46.33
2022-10-11T14:09:49.398Z,46.06
2022-10-11T14:10:54.211Z,46.45
2022-10-11T14:11:50.997Z,47.07
2022-10-11T14:12:50.236Z,47.49
2022-10-11T14:13:50.550Z,47.99
2022-10-11T14:14:54.695Z,46.82
2022-10-11T14:15:51.202Z,46.55
2022-10-11T14:16:51.529Z,47.83
2022-10-11T14:17:51.823Z,47.44
2022-10-11T14:18:52.146Z,48.55
2022-10-11T14:19:52.449Z,48.25
2022-10-11T14:20:52.747Z,49.24
2022-10-11T14:21:53.052Z,49.54
2022-10-11T14:22:53.521Z,49.27
2022-10-11T14:23:53.658Z,49.76
2022-10-11T14:24:53.962Z,49.27
2022-10-11T14:25:54.181Z,49.76
2022-10-11T14:26:54.532Z,49.46
2022-10-11T14:27:54.729Z,49.76
2022-10-11T14:28:55.077Z,50.46
2022-10-11T14:30:20.396Z,50.68
2022-10-11T14:30:56.595Z,51.67
2022-10-11T14:31:55.894Z,52.39
2022-10-11T14:32:56.052Z,53.21
2022-10-11T14:33:56.384Z,53.53
2022-10-11T14:34:56.686Z,54.46
2022-10-11T14:35:57.055Z,55.05
2022-10-11T14:36:57.247Z,55.27
2022-10-11T14:37:57.639Z,55.67
2022-10-11T14:38:57.981Z,55.80
2022-10-11T14:39:58.114Z,56.20
2022-10-11T14:40:58.451Z,56.72
2022-10-11T14:41:58.631Z,57.45
2022-10-11T14:42:58.933Z,57.97
2022-10-11T14:43:59.239Z,58.70
2022-10-11T14:44:59.530Z,59.19
2022-10-11T14:45:59.859Z,59.62
2022-10-11T14:47:00.153Z,59.82
2022-10-11T14:48:00.481Z,60.15
2022-10-11T14:49:00.786Z,60.45
2022-10-11T14:50:01.092Z,60.85
2022-10-11T14:51:01.411Z,60.95
2022-10-11T14:52:01.712Z,61.15
2022-10-11T14:53:02.055Z,61.05
2022-10-11T14:54:06.375Z,61.47
2022-10-11T14:55:02.602Z,61.87
2022-10-11T14:56:03.159Z,62.60
2022-10-11T14:57:03.150Z,62.81
2022-10-11T14:58:07.224Z,62.70
2022-10-11T14:59:03.684Z,63.13
2022-10-11T15:00:03.984Z,63.17
2022-10-11T15:01:04.364Z,63.66